Time;durP1;ratioP1;P1;durP2;ratioP2;P2;SDS_P1;SDS_P2;PMS_P1;PMS_P2;Temp;Humidity;BMP_temperature;BMP_pressure;BME280_temperature;BME280_humidity;BME280_pressure;Samples;Min_cycle;Max_cycle;Signal;HPM_P1;HPM_P2
2023/05/30 00:01:01;;;;;;;6.15;2.25;;;16.20;99.90;;;;;;5001188;28;20215;-74
2023/05/30 00:03:26;;;;;;;6.10;2.20;;;16.20;99.90;;;;;;4998114;28;20642;-75
2023/05/30 00:05:52;;;;;;;6.93;2.13;;;16.10;99.90;;;;;;5020922;28;20176;-74
2023/05/30 00:08:18;;;;;;;10.48;3.25;;;16.10;99.90;;;;;;5015546;28;20212;-73
2023/05/30 00:10:43;;;;;;;7.68;3.03;;;16.00;99.90;;;;;;5022174;28;20275;-74
2023/05/30 00:13:09;;;;;;;5.70;2.42;;;16.00;99.90;;;;;;5017766;28;20286;-73
2023/05/30 00:15:35;;;;;;;8.23;2.40;;;16.00;99.90;;;;;;5022707;28;20209;-75
2023/05/30 00:18:02;;;;;;;8.65;2.60;;;15.90;99.90;;;;;;5003218;28;20216;-75
2023/05/30 00:20:29;;;;;;;7.60;2.65;;;15.90;99.90;;;;;;5023215;28;20215;-74
2023/05/30 00:22:58;;;;;;;5.95;2.08;;;15.90;99.90;;;;;;5021737;28;20205;-74
2023/05/30 00:25:24;;;;;;;7.63;2.40;;;15.90;99.90;;;;;;5021864;28;20204;-74
2023/05/30 00:27:50;;;;;;;6.75;2.30;;;15.80;99.90;;;;;;5016658;28;20235;-75
2023/05/30 00:30:16;;;;;;;4.25;2.53;;;15.90;99.90;;;;;;4995669;28;20173;-74
2023/05/30 00:32:42;;;;;;;8.98;2.05;;;15.80;99.90;;;;;;5015863;28;20180;-74
2023/05/30 00:35:08;;;;;;;7.45;2.55;;;15.80;99.90;;;;;;5015868;28;20224;-74
2023/05/30 00:37:34;;;;;;;7.82;2.42;;;15.80;99.90;;;;;;4996482;28;20578;-75
2023/05/30 00:40:00;;;;;;;4.57;2.30;;;15.70;99.90;;;;;;5018620;28;20207;-73
2023/05/30 00:42:28;;;;;;;8.45;2.72;;;15.70;99.90;;;;;;5017062;28;20267;-75
2023/05/30 00:44:54;;;;;;;6.57;2.40;;;15.70;99.90;;;;;;5019967;28;20176;-75
2023/05/30 00:47:20;;;;;;;4.88;2.38;;;15.60;99.90;;;;;;5016004;28;20866;-74
2023/05/30 00:49:46;;;;;;;7.10;2.83;;;15.60;99.90;;;;;;5003855;28;20208;-74
2023/05/30 00:52:12;;;;;;;6.07;2.40;;;15.60;99.90;;;;;;5017171;28;20205;-74
2023/05/30 00:54:44;;;;;;;6.47;2.50;;;15.50;99.90;;;;;;5017276;28;20884;-74
2023/05/30 00:57:10;;;;;;;7.82;2.60;;;15.60;99.90;;;;;;5015895;28;20177;-74
2023/05/30 00:59:36;;;;;;;8.80;2.38;;;15.60;99.90;;;;;;5006303;28;20177;-74
2023/05/30 01:02:02;;;;;;;5.07;2.50;;;15.60;99.90;;;;;;5021165;28;20216;-75
2023/05/30 01:04:29;;;;;;;5.20;2.17;;;15.50;99.90;;;;;;4999358;28;20209;-74
2023/05/30 01:06:55;;;;;;;9.40;3.00;;;15.50;99.90;;;;;;4999419;28;20211;-73
2023/05/30 01:09:21;;;;;;;7.60;2.83;;;15.30;99.90;;;;;;5012473;28;20259;-74
2023/05/30 01:12:03;;;;;;;7.25;2.63;;;15.30;99.90;;;;;;5016538;28;20173;-74
2023/05/30 01:14:42;;;;;;;7.10;2.60;;;15.30;99.90;;;;;;4993995;28;20655;-74
2023/05/30 01:17:24;;;;;;;7.25;2.40;;;15.20;99.90;;;;;;5016249;28;20748;-74
2023/05/30 01:19:50;;;;;;;10.07;2.50;;;15.20;99.90;;;;;;5012407;28;20224;-74
2023/05/30 01:22:53;;;;;;;5.65;2.45;;;15.10;99.90;;;;;;5014921;28;20223;-74
2023/05/30 01:25:35;;;;;;;7.03;2.38;;;15.20;99.90;;;;;;5013615;28;20697;-74
2023/05/30 01:28:12;;;;;;;5.85;2.28;;;15.20;99.90;;;;;;4995249;28;20209;-74
2023/05/30 01:30:45;;;;;;;8.18;2.50;;;15.10;99.90;;;;;;5019272;28;20343;-74
2023/05/30 01:33:12;;;;;;;8.60;2.50;;;15.10;99.90;;;;;;4996646;28;20692;-73
2023/05/30 01:35:38;;;;;;;7.05;2.65;;;15.10;99.90;;;;;;5022756;28;20180;-75
2023/05/30 01:38:03;;;;;;;6.43;2.55;;;15.10;99.90;;;;;;5073043;23;20238;-72
2023/05/30 01:40:29;;;;;;;7.07;2.60;;;15.10;99.90;;;;;;5043467;28;20344;-72
2023/05/30 01:43:03;;;;;;;6.95;2.55;;;15.00;99.90;;;;;;5064116;28;20210;-71
2023/05/30 01:45:49;;;;;;;10.35;3.10;;;15.00;99.90;;;;;;5031037;28;20204;-73
2023/05/30 01:48:53;;;;;;;4.95;2.30;;;15.00;99.90;;;;;;5008617;28;20218;-72
2023/05/30 01:51:26;;;;;;;9.05;2.30;;;15.10;99.90;;;;;;5009280;28;20246;-72
2023/05/30 01:53:58;;;;;;;8.73;2.40;;;15.00;99.90;;;;;;5033841;28;20199;-72
2023/05/30 01:56:26;;;;;;;6.10;2.10;;;15.10;99.90;;;;;;5038676;28;20269;-72
2023/05/30 01:58:52;;;;;;;7.10;2.67;;;15.00;99.90;;;;;;5017429;28;20358;-71
2023/05/30 02:01:19;;;;;;;6.72;2.53;;;15.00;99.90;;;;;;5023273;28;20721;-72
2023/05/30 02:03:47;;;;;;;9.40;2.78;;;15.00;99.90;;;;;;5034809;28;20204;-72
2023/05/30 02:06:13;;;;;;;3.65;2.20;;;14.90;99.90;;;;;;5038300;28;20192;-71
2023/05/30 02:08:38;;;;;;;6.80;2.90;;;15.00;99.90;;;;;;5034914;28;20266;-72
2023/05/30 02:11:04;;;;;;;4.97;2.10;;;15.00;99.90;;;;;;5041257;28;20210;-72
2023/05/30 02:13:30;;;;;;;6.45;2.45;;;14.90;99.90;;;;;;5036153;28;20204;-73
2023/05/30 02:15:55;;;;;;;3.40;2.20;;;14.90;99.90;;;;;;5039694;28;20682;-72
2023/05/30 02:18:21;;;;;;;6.35;2.40;;;14.80;99.90;;;;;;5040558;28;20227;-72
2023/05/30 02:20:46;;;;;;;5.63;2.38;;;14.80;99.90;;;;;;5040639;28;20243;-73
2023/05/30 02:23:12;;;;;;;6.90;2.42;;;14.70;99.90;;;;;;5029713;28;20246;-71
2023/05/30 02:25:38;;;;;;;7.35;2.47;;;14.70;99.90;;;;;;5021391;28;20274;-73
2023/05/30 02:28:03;;;;;;;5.32;2.78;;;14.80;99.90;;;;;;5014594;28;20299;-72
2023/05/30 02:30:29;;;;;;;7.75;2.70;;;14.70;99.90;;;;;;5031888;28;20906;-72
2023/05/30 02:32:54;;;;;;;10.23;2.65;;;14.70;99.90;;;;;;5033944;28;20176;-72
2023/05/30 02:35:20;;;;;;;6.95;2.25;;;14.80;99.90;;;;;;5034372;28;20204;-72
2023/05/30 02:37:46;;;;;;;7.45;2.53;;;14.70;99.90;;;;;;5017358;28;20300;-73
2023/05/30 02:40:12;;;;;;;8.63;2.20;;;14.70;99.90;;;;;;5016210;28;20283;-70
2023/05/30 02:42:37;;;;;;;7.10;2.78;;;14.70;99.90;;;;;;5039134;28;20288;-72
2023/05/30 02:45:04;;;;;;;5.03;2.08;;;14.70;99.90;;;;;;5035143;28;20654;-73
2023/05/30 02:47:31;;;;;;;4.53;2.22;;;14.60;99.90;;;;;;5025044;28;20196;-72
2023/05/30 02:49:56;;;;;;;5.18;2.35;;;14.60;99.90;;;;;;5022872;28;20201;-72
2023/05/30 02:52:22;;;;;;;5.45;2.60;;;14.50;99.90;;;;;;5038657;28;20214;-71
2023/05/30 02:54:48;;;;;;;6.03;2.75;;;14.50;99.90;;;;;;5019891;28;20566;-72
2023/05/30 02:57:15;;;;;;;8.03;2.50;;;14.50;99.90;;;;;;5040626;28;20662;-72
2023/05/30 02:59:41;;;;;;;8.87;2.70;;;14.40;99.90;;;;;;5043575;28;20598;-73
2023/05/30 03:02:06;;;;;;;5.60;2.10;;;14.40;99.90;;;;;;5031036;28;20299;-73
2023/05/30 03:04:32;;;;;;;10.70;2.37;;;14.40;99.90;;;;;;5013076;28;20204;-72
2023/05/30 03:06:59;;;;;;;8.50;3.00;;;14.40;99.90;;;;;;5013762;28;20573;-73
2023/05/30 03:09:24;;;;;;;5.50;2.50;;;14.50;99.90;;;;;;5015524;28;20212;-73
2023/05/30 03:11:50;;;;;;;6.05;2.35;;;14.50;99.90;;;;;;5033347;28;20187;-74
2023/05/30 03:14:16;;;;;;;8.93;2.65;;;14.60;99.90;;;;;;5010398;28;20235;-71
2023/05/30 03:16:41;;;;;;;6.45;2.45;;;14.60;99.90;;;;;;5033217;28;20216;-72
2023/05/30 03:19:07;;;;;;;5.80;2.65;;;14.60;99.90;;;;;;5018176;28;20212;-72
2023/05/30 03:21:34;;;;;;;8.43;2.67;;;14.60;99.90;;;;;;5034373;28;20303;-72
2023/05/30 03:23:59;;;;;;;5.88;2.50;;;14.60;99.90;;;;;;5035939;28;20659;-72
2023/05/30 03:26:25;;;;;;;5.88;2.58;;;14.60;99.90;;;;;;5037168;28;20215;-72
2023/05/30 03:28:51;;;;;;;9.50;2.88;;;14.60;99.90;;;;;;5036335;28;20662;-72
2023/05/30 03:31:18;;;;;;;5.45;2.42;;;14.70;99.90;;;;;;5041013;28;20204;-72
2023/05/30 03:33:44;;;;;;;6.50;2.92;;;14.90;99.90;;;;;;5032697;28;20208;-72
2023/05/30 03:36:10;;;;;;;4.35;2.42;;;15.30;99.90;;;;;;5040996;28;20175;-73
2023/05/30 03:38:37;;;;;;;9.00;2.83;;;15.70;99.90;;;;;;5020977;28;20182;-73
2023/05/30 03:41:03;;;;;;;9.32;3.03;;;16.20;99.90;;;;;;5030378;28;20727;-72
2023/05/30 03:43:29;;;;;;;7.45;2.97;;;16.60;99.90;;;;;;5012980;28;20216;-72
2023/05/30 03:45:55;;;;;;;5.47;2.35;;;17.10;99.90;;;;;;5016981;28;20695;-72
2023/05/30 03:48:20;;;;;;;7.53;2.75;;;17.70;99.90;;;;;;5032596;28;20227;-72
2023/05/30 03:50:46;;;;;;;6.82;2.65;;;18.30;99.90;;;;;;5020281;28;20172;-72
2023/05/30 03:53:12;;;;;;;5.20;2.75;;;18.50;99.90;;;;;;5034274;28;20287;-70
2023/05/30 03:55:38;;;;;;;8.55;2.90;;;18.80;99.90;;;;;;5033310;28;20687;-74
2023/05/30 03:58:04;;;;;;;4.85;2.40;;;19.20;99.90;;;;;;5016829;28;20275;-73
2023/05/30 04:00:29;;;;;;;15.77;3.50;;;19.60;99.90;;;;;;5035408;28;20211;-71
2023/05/30 04:02:58;;;;;;;9.02;3.20;;;19.90;99.90;;;;;;5035083;28;20261;-73
2023/05/30 04:05:25;;;;;;;6.82;2.88;;;20.00;99.90;;;;;;5036768;28;20211;-70
2023/05/30 04:07:51;;;;;;;6.60;3.08;;;20.30;99.90;;;;;;5035956;28;20239;-71
2023/05/30 04:10:16;;;;;;;8.50;3.25;;;20.60;99.90;;;;;;5015257;28;20219;-70
2023/05/30 04:12:43;;;;;;;8.18;3.05;;;20.90;99.90;;;;;;5036859;28;20211;-72
2023/05/30 04:15:09;;;;;;;7.50;3.05;;;21.10;99.90;;;;;;5021708;28;20199;-71
2023/05/30 04:17:35;;;;;;;9.77;3.13;;;21.30;99.90;;;;;;5043123;28;20200;-73
2023/05/30 04:20:01;;;;;;;6.47;2.65;;;21.90;99.90;;;;;;5032145;28;20562;-71
2023/05/30 04:22:26;;;;;;;5.32;2.67;;;22.20;99.90;;;;;;5012804;28;20220;-71
2023/05/30 04:24:52;;;;;;;8.63;2.92;;;22.30;99.90;;;;;;5030471;28;20675;-71
2023/05/30 04:27:19;;;;;;;9.32;2.80;;;22.80;99.90;;;;;;5012788;28;20204;-71
2023/05/30 04:29:46;;;;;;;7.75;2.38;;;22.50;99.90;;;;;;5036277;28;20179;-71
2023/05/30 04:32:12;;;;;;;5.47;2.47;;;22.90;99.90;;;;;;5037079;28;20578;-69
2023/05/30 04:34:39;;;;;;;5.57;2.40;;;22.60;99.90;;;;;;5036370;28;20197;-71
2023/05/30 04:37:07;;;;;;;10.02;2.83;;;22.70;99.90;;;;;;5037347;28;20220;-72
2023/05/30 04:39:33;;;;;;;6.85;2.42;;;23.00;99.90;;;;;;5038765;28;20215;-72
2023/05/30 04:41:59;;;;;;;5.43;2.42;;;23.20;99.90;;;;;;5038788;28;20307;-70
2023/05/30 04:44:25;;;;;;;5.43;2.78;;;23.00;99.40;;;;;;5040092;28;20204;-71
2023/05/30 04:46:51;;;;;;;4.95;2.67;;;22.90;99.10;;;;;;5035163;28;20275;-72
2023/05/30 04:49:17;;;;;;;8.05;3.22;;;23.30;98.60;;;;;;5035244;28;20204;-71
2023/05/30 04:51:46;;;;;;;6.00;3.10;;;23.60;98.30;;;;;;5040360;28;20637;-72
2023/05/30 04:54:13;;;;;;;8.73;3.10;;;24.00;97.30;;;;;;5042869;28;20176;-70
2023/05/30 04:56:40;;;;;;;5.93;2.63;;;24.00;96.90;;;;;;5037515;28;20323;-72
2023/05/30 04:59:05;;;;;;;4.30;2.05;;;23.50;96.70;;;;;;5033598;28;20247;-73
2023/05/30 05:01:35;;;;;;;8.75;4.50;;;23.30;97.00;;;;;;5016565;28;20236;-73
2023/05/30 05:04:02;;;;;;;9.80;3.38;;;23.90;96.20;;;;;;5033731;28;20208;-71
2023/05/30 05:06:27;;;;;;;17.88;10.32;;;24.30;96.00;;;;;;5035412;28;20215;-70
2023/05/30 05:08:53;;;;;;;5.70;2.90;;;24.90;94.00;;;;;;5050543;28;20180;-71
2023/05/30 05:11:19;;;;;;;5.85;2.70;;;25.30;93.60;;;;;;5047504;28;20214;-71
2023/05/30 05:13:44;;;;;;;5.30;2.30;;;25.10;92.90;;;;;;5043757;28;20211;-72
2023/05/30 05:16:10;;;;;;;5.70;2.42;;;24.90;93.20;;;;;;5029390;28;20775;-72
2023/05/30 05:18:35;;;;;;;6.53;2.75;;;24.50;93.00;;;;;;5043730;28;20217;-72
2023/05/30 05:21:01;;;;;;;5.63;2.30;;;24.40;92.90;;;;;;5046585;28;20203;-73
2023/05/30 05:23:28;;;;;;;6.25;2.30;;;24.30;93.10;;;;;;5011684;28;20184;-72
2023/05/30 05:25:53;;;;;;;6.47;2.30;;;24.70;92.70;;;;;;5041161;28;20204;-72
2023/05/30 05:28:19;;;;;;;5.25;2.72;;;24.40;93.10;;;;;;5024075;28;20216;-72
2023/05/30 05:30:48;;;;;;;6.93;2.75;;;25.10;92.50;;;;;;5044800;28;20208;-72
2023/05/30 05:33:15;;;;;;;6.20;2.53;;;25.40;92.20;;;;;;5022898;28;20176;-71
2023/05/30 05:35:41;;;;;;;9.95;4.03;;;25.80;91.80;;;;;;5046727;28;20555;-73
2023/05/30 05:38:06;;;;;;;5.15;2.47;;;25.70;91.00;;;;;;5050004;28;20211;-71
2023/05/30 05:40:32;;;;;;;6.47;2.17;;;25.90;91.00;;;;;;5049248;28;20204;-72
2023/05/30 05:42:57;;;;;;;7.28;2.20;;;25.90;90.80;;;;;;5049715;28;20215;-72
2023/05/30 05:45:23;;;;;;;4.97;2.75;;;26.20;91.00;;;;;;5047283;28;20211;-72
2023/05/30 05:47:49;;;;;;;5.30;2.20;;;26.00;90.80;;;;;;5049208;28;20656;-73
2023/05/30 05:50:14;;;;;;;5.63;2.33;;;26.70;90.40;;;;;;5047494;28;20208;-72
2023/05/30 05:52:41;;;;;;;7.75;2.58;;;27.40;89.80;;;;;;5046632;28;20721;-73
2023/05/30 05:55:07;;;;;;;5.95;2.83;;;27.60;88.20;;;;;;5046482;28;20207;-73
2023/05/30 05:57:32;;;;;;;5.55;2.47;;;27.40;86.90;;;;;;5044207;28;20224;-73
2023/05/30 05:59:58;;;;;;;7.00;2.85;;;27.60;87.40;;;;;;5046806;28;20230;-73
2023/05/30 06:02:24;;;;;;;5.53;2.83;;;28.30;85.30;;;;;;5042159;28;20216;-72
2023/05/30 06:04:50;;;;;;;5.88;2.30;;;28.90;84.30;;;;;;5043340;28;20204;-73
2023/05/30 06:07:16;;;;;;;5.43;1.85;;;29.50;81.70;;;;;;5039944;28;20212;-72
2023/05/30 06:09:41;;;;;;;7.53;2.55;;;29.10;80.90;;;;;;5010595;28;20209;-73
2023/05/30 06:12:07;;;;;;;5.22;2.55;;;28.20;80.10;;;;;;5040894;28;20184;-73
2023/05/30 06:14:33;;;;;;;6.20;2.40;;;28.00;81.90;;;;;;5048743;28;20681;-72
2023/05/30 06:16:59;;;;;;;6.18;2.63;;;28.00;81.60;;;;;;5032387;28;20260;-74
2023/05/30 06:19:24;;;;;;;5.72;2.55;;;28.60;82.00;;;;;;5049146;28;20211;-73
2023/05/30 06:21:50;;;;;;;7.00;2.63;;;28.30;81.90;;;;;;5031236;28;20219;-73
2023/05/30 06:24:16;;;;;;;4.95;2.45;;;28.60;80.60;;;;;;5029918;28;20183;-73
2023/05/30 06:26:41;;;;;;;5.20;2.63;;;29.50;79.70;;;;;;5047265;28;20208;-73
2023/05/30 06:29:07;;;;;;;5.93;2.42;;;29.60;79.00;;;;;;5047728;28;20290;-73
2023/05/30 06:31:33;;;;;;;6.00;2.60;;;29.90;78.10;;;;;;5044686;28;20215;-73
2023/05/30 06:33:58;;;;;;;6.32;2.40;;;29.70;78.30;;;;;;5027852;28;20209;-73
2023/05/30 06:36:24;;;;;;;3.95;2.40;;;28.80;77.40;;;;;;5037787;28;20693;-72
2023/05/30 06:38:51;;;;;;;3.67;2.25;;;29.40;77.80;;;;;;5027787;28;20167;-72
2023/05/30 06:41:17;;;;;;;3.83;2.30;;;29.00;77.50;;;;;;5042373;28;20277;-74
2023/05/30 06:43:42;;;;;;;7.25;2.45;;;28.70;78.20;;;;;;5042427;28;20211;-74
2023/05/30 06:46:08;;;;;;;3.55;2.22;;;28.30;79.10;;;;;;5020998;28;20202;-74
2023/05/30 06:48:33;;;;;;;7.70;2.80;;;28.60;78.60;;;;;;5024586;28;20763;-74
2023/05/30 06:50:59;;;;;;;9.70;2.65;;;29.30;77.80;;;;;;5042976;28;20555;-74
2023/05/30 06:53:25;;;;;;;5.43;2.58;;;29.60;77.70;;;;;;5048958;28;20211;-75
2023/05/30 06:55:50;;;;;;;4.65;2.45;;;30.10;76.40;;;;;;5048981;28;20294;-75
2023/05/30 06:58:17;;;;;;;4.75;2.30;;;30.40;75.80;;;;;;5048899;28;20297;-76
2023/05/30 07:00:43;;;;;;;5.45;2.58;;;30.50;75.00;;;;;;5047013;28;20654;-75
2023/05/30 07:03:09;;;;;;;6.22;2.50;;;30.50;72.90;;;;;;5047591;28;20223;-75
2023/05/30 07:05:35;;;;;;;6.07;2.25;;;30.20;73.90;;;;;;5037883;28;20176;-74
2023/05/30 07:08:00;;;;;;;4.57;2.53;;;30.20;73.50;;;;;;5028653;28;20697;-74
2023/05/30 07:10:26;;;;;;;8.23;2.78;;;30.50;73.60;;;;;;5043746;28;20562;-74
2023/05/30 07:12:52;;;;;;;6.13;2.08;;;31.40;73.10;;;;;;5045453;28;20207;-74
2023/05/30 07:15:18;;;;;;;4.72;2.58;;;31.30;72.00;;;;;;5043039;28;20269;-75
2023/05/30 07:17:43;;;;;;;6.88;2.53;;;30.50;73.30;;;;;;5043729;28;20226;-74
2023/05/30 07:20:09;;;;;;;5.20;2.28;;;30.70;72.20;;;;;;5043124;28;20195;-74
2023/05/30 07:22:38;;;;;;;4.55;2.45;;;31.20;71.70;;;;;;5037555;28;20604;-75
2023/05/30 07:25:05;;;;;;;5.07;2.20;;;30.00;71.90;;;;;;5023856;28;20207;-75
2023/05/30 07:27:31;;;;;;;5.10;2.40;;;30.50;72.90;;;;;;5021267;28;20212;-75
2023/05/30 07:29:56;;;;;;;5.30;2.28;;;31.00;71.90;;;;;;5046428;28;20171;-74
2023/05/30 07:32:22;;;;;;;6.00;2.25;;;30.00;70.50;;;;;;5049275;28;20704;-74
2023/05/30 07:34:48;;;;;;;6.63;2.63;;;29.60;72.30;;;;;;5046516;28;20715;-75
2023/05/30 07:37:14;;;;;;;7.38;2.80;;;30.00;72.90;;;;;;5051990;23;21708;-74
2023/05/30 07:39:39;;;;;;;5.05;2.20;;;30.40;73.20;;;;;;5013281;28;20220;-75
2023/05/30 07:42:06;;;;;;;6.32;2.20;;;28.90;72.00;;;;;;5012636;28;20275;-74
2023/05/30 07:44:32;;;;;;;41.78;30.08;;;30.00;71.70;;;;;;4991149;28;20176;-74
2023/05/30 07:46:58;;;;;;;4.00;2.00;;;30.10;70.30;;;;;;5011686;28;20207;-74
2023/05/30 07:49:23;;;;;;;6.85;2.67;;;30.50;69.40;;;;;;4990800;28;20224;-75
2023/05/30 07:51:49;;;;;;;4.75;2.78;;;29.40;72.00;;;;;;5007651;28;20211;-75
2023/05/30 07:54:15;;;;;;;5.10;2.08;;;30.40;70.40;;;;;;5004153;28;20715;-74
2023/05/30 07:56:40;;;;;;;6.88;2.05;;;31.10;68.60;;;;;;4992125;28;20212;-74
2023/05/30 07:59:06;;;;;;;7.88;2.97;;;31.50;67.20;;;;;;5004644;28;20667;-75
2023/05/30 08:01:32;;;;;;;5.65;2.33;;;30.80;65.90;;;;;;4990926;28;20224;-74
2023/05/30 08:03:59;;;;;;;13.00;8.95;;;30.30;66.60;;;;;;5009144;28;20679;-74
2023/05/30 08:06:25;;;;;;;7.72;2.40;;;30.60;66.90;;;;;;4992849;28;20726;-75
2023/05/30 08:08:51;;;;;;;5.25;2.15;;;30.30;67.30;;;;;;5021394;28;20671;-74
2023/05/30 08:11:17;;;;;;;6.55;2.55;;;29.80;66.70;;;;;;5016712;28;20216;-74
2023/05/30 08:13:47;;;;;;;5.22;2.30;;;30.40;66.60;;;;;;5001530;28;20706;-75
2023/05/30 08:16:13;;;;;;;5.35;2.35;;;30.20;66.50;;;;;;5015161;28;20212;-74
2023/05/30 08:18:39;;;;;;;3.55;2.17;;;29.20;66.30;;;;;;4997289;28;20223;-74
2023/05/30 08:21:05;;;;;;;8.18;2.65;;;28.80;67.70;;;;;;5013187;28;20275;-74
2023/05/30 08:23:31;;;;;;;7.25;3.30;;;28.70;69.00;;;;;;4996595;28;20180;-74
2023/05/30 08:25:56;;;;;;;6.47;2.95;;;28.60;69.30;;;;;;4999770;28;20196;-75
2023/05/30 08:28:23;;;;;;;8.38;3.50;;;28.20;69.80;;;;;;5008149;28;20241;-73
2023/05/30 08:30:49;;;;;;;7.63;2.70;;;28.10;69.30;;;;;;4998231;28;20209;-73
2023/05/30 08:33:16;;;;;;;5.70;2.17;;;27.70;69.70;;;;;;4994632;28;20652;-73
2023/05/30 08:35:42;;;;;;;6.05;2.63;;;27.60;69.80;;;;;;5010301;28;20564;-75
2023/05/30 08:38:07;;;;;;;5.78;2.80;;;27.70;69.70;;;;;;4990318;28;20292;-76
2023/05/30 08:40:34;;;;;;;5.07;2.58;;;28.30;69.00;;;;;;4993808;28;20206;-72
2023/05/30 08:43:00;;;;;;;6.70;2.50;;;27.40;70.10;;;;;;5006037;28;20311;-73
2023/05/30 08:45:26;;;;;;;32.75;25.58;;;26.50;71.60;;;;;;5005052;28;20646;-76
2023/05/30 08:47:56;;;;;;;6.40;3.17;;;27.40;72.20;;;;;;4999411;28;20209;-74
2023/05/30 08:50:23;;;;;;;8.60;2.70;;;27.10;70.80;;;;;;4999366;28;20213;-73
2023/05/30 08:52:52;;;;;;;8.15;4.03;;;27.80;71.10;;;;;;4999117;28;20252;-74
2023/05/30 08:55:31;;;;;;;6.50;2.78;;;27.10;71.10;;;;;;4998279;28;20245;-74
2023/05/30 08:58:15;;;;;;;7.03;2.90;;;27.60;71.10;;;;;;5018401;28;20224;-75
2023/05/30 09:00:42;;;;;;;9.82;2.90;;;27.70;70.80;;;;;;5014771;28;20637;-74
2023/05/30 09:03:10;;;;;;;18.15;11.57;;;27.20;71.20;;;;;;5014473;28;20180;-75
2023/05/30 09:05:36;;;;;;;8.82;2.72;;;27.00;72.80;;;;;;5008878;28;20192;-74
2023/05/30 09:08:02;;;;;;;7.57;3.67;;;26.90;71.60;;;;;;5010235;28;20219;-75
2023/05/30 09:10:32;;;;;;;7.32;2.40;;;26.70;72.20;;;;;;5006238;28;20240;-75
2023/05/30 09:12:59;;;;;;;5.13;2.50;;;26.50;71.90;;;;;;4992662;28;20591;-75
2023/05/30 09:15:24;;;;;;;7.97;2.63;;;26.50;73.10;;;;;;5004361;28;20212;-74
2023/05/30 09:17:50;;;;;;;6.40;2.42;;;26.10;72.50;;;;;;4996469;28;20209;-74
2023/05/30 09:20:17;;;;;;;7.43;3.10;;;26.10;74.40;;;;;;5005362;28;20228;-75
2023/05/30 09:22:44;;;;;;;5.22;2.20;;;26.60;73.00;;;;;;4992921;28;20224;-74
2023/05/30 09:25:15;;;;;;;5.38;2.47;;;26.60;72.80;;;;;;4998106;28;20220;-74
2023/05/30 09:27:46;;;;;;;6.28;2.50;;;26.40;73.20;;;;;;5016157;28;20223;-74
2023/05/30 09:30:13;;;;;;;6.85;2.60;;;26.50;72.40;;;;;;4996801;28;20177;-72
2023/05/30 09:32:39;;;;;;;7.15;2.20;;;26.30;71.80;;;;;;5010534;28;20173;-74
2023/05/30 09:35:07;;;;;;;6.10;2.22;;;26.10;72.30;;;;;;4996898;28;20208;-74
2023/05/30 09:37:42;;;;;;;7.60;2.50;;;26.00;73.00;;;;;;5010890;28;20608;-74
2023/05/30 09:40:09;;;;;;;5.05;1.88;;;26.00;72.30;;;;;;5007614;28;20200;-74
2023/05/30 09:42:53;;;;;;;5.65;2.35;;;26.20;70.80;;;;;;5010424;28;20221;-73
2023/05/30 09:45:22;;;;;;;7.65;2.40;;;25.70;71.50;;;;;;5006630;28;20177;-74
2023/05/30 09:47:49;;;;;;;7.22;2.83;;;25.80;72.90;;;;;;4995001;28;20256;-74
2023/05/30 09:50:17;;;;;;;5.90;2.75;;;24.80;73.60;;;;;;5006514;28;20204;-74
2023/05/30 09:52:44;;;;;;;6.32;2.15;;;25.30;74.50;;;;;;5005686;28;20212;-75
2023/05/30 09:55:13;;;;;;;5.18;2.53;;;25.20;74.70;;;;;;5005225;28;20217;-75
2023/05/30 09:57:40;;;;;;;7.28;2.42;;;25.30;74.40;;;;;;5001094;28;20218;-74
2023/05/30 10:00:13;;;;;;;5.70;2.38;;;25.10;74.70;;;;;;5005148;28;20204;-74
2023/05/30 10:02:41;;;;;;;4.68;2.17;;;24.70;74.90;;;;;;4984199;28;20645;-74
2023/05/30 10:05:21;;;;;;;5.30;2.50;;;25.00;74.60;;;;;;5001322;28;20254;-74
2023/05/30 10:07:49;;;;;;;8.88;2.83;;;24.60;74.70;;;;;;5000833;28;20213;-74
2023/05/30 10:10:16;;;;;;;5.72;2.63;;;24.40;76.30;;;;;;4998136;28;20243;-74
2023/05/30 10:12:52;;;;;;;4.45;2.33;;;24.90;75.90;;;;;;5011606;28;20235;-74
2023/05/30 10:15:19;;;;;;;4.13;2.33;;;25.10;74.10;;;;;;4993719;28;20177;-74
2023/05/30 10:17:50;;;;;;;4.70;2.30;;;24.80;74.90;;;;;;4996665;28;20201;-74
2023/05/30 10:20:18;;;;;;;6.00;2.70;;;25.10;74.40;;;;;;5011197;28;20201;-75
2023/05/30 10:22:46;;;;;;;7.65;2.92;;;25.00;74.30;;;;;;4994845;28;20221;-75
2023/05/30 10:25:13;;;;;;;6.50;2.70;;;25.20;74.50;;;;;;5007281;28;20289;-73
2023/05/30 10:28:00;;;;;;;7.55;2.53;;;24.90;75.00;;;;;;5004342;28;20674;-73
2023/05/30 10:30:28;;;;;;;9.20;2.80;;;25.10;75.30;;;;;;5009165;28;20209;-74
2023/05/30 10:33:09;;;;;;;8.30;2.55;;;25.00;76.20;;;;;;5005708;28;20189;-74
2023/05/30 10:35:35;;;;;;;6.25;2.15;;;24.10;75.70;;;;;;5013302;28;20216;-75
2023/05/30 10:38:04;;;;;;;7.18;3.63;;;23.60;77.10;;;;;;5007952;28;20224;-74
2023/05/30 10:40:52;;;;;;;3.83;2.10;;;23.90;76.60;;;;;;5009177;28;20697;-75
2023/05/30 10:43:29;;;;;;;4.82;2.08;;;24.30;75.60;;;;;;4998510;28;20219;-73
2023/05/30 10:46:20;;;;;;;5.80;2.80;;;24.50;74.10;;;;;;5015854;28;20587;-74
2023/05/30 10:48:58;;;;;;;7.22;2.22;;;24.80;73.70;;;;;;4993906;28;20296;-74
2023/05/30 10:51:24;;;;;;;8.70;2.83;;;24.50;74.00;;;;;;5014055;28;20213;-73
2023/05/30 10:53:50;;;;;;;6.72;2.35;;;24.00;74.10;;;;;;4989583;28;20260;-74
2023/05/30 10:56:54;;;;;;;6.57;2.65;;;24.30;75.70;;;;;;5010632;28;20200;-73
2023/05/30 10:59:20;;;;;;;8.48;2.70;;;24.30;75.60;;;;;;4921733;29;20211;-74
2023/05/30 11:02:05;;;;;;;6.50;2.38;;;24.60;75.00;;;;;;4920698;29;20226;-73
2023/05/30 11:04:38;;;;;;;6.65;2.10;;;24.60;74.10;;;;;;4974718;28;20327;-74
2023/05/30 11:07:10;;;;;;;4.80;1.90;;;24.60;73.40;;;;;;5006537;28;20604;-75
2023/05/30 11:09:41;;;;;;;6.82;2.50;;;24.60;73.00;;;;;;5005112;28;20208;-74
2023/05/30 11:12:08;;;;;;;4.95;2.47;;;24.50;72.40;;;;;;4994486;28;20181;-74
2023/05/30 11:14:39;;;;;;;7.03;2.70;;;24.10;74.00;;;;;;5002028;28;20169;-74
2023/05/30 11:17:05;;;;;;;4.72;2.20;;;24.10;74.20;;;;;;5004900;28;20304;-74
2023/05/30 11:19:38;;;;;;;7.95;2.22;;;24.30;74.70;;;;;;5001785;28;20740;-74
2023/05/30 11:22:10;;;;;;;5.97;2.10;;;24.60;74.60;;;;;;5021738;28;20226;-74
2023/05/30 11:24:36;;;;;;;5.80;2.40;;;24.30;74.10;;;;;;4992157;28;20225;-74
2023/05/30 11:27:07;;;;;;;6.15;2.38;;;23.80;75.10;;;;;;5015180;28;20588;-73
2023/05/30 11:29:55;;;;;;;6.35;2.10;;;23.90;75.20;;;;;;5009498;28;20185;-74
2023/05/30 11:32:29;;;;;;;6.18;2.40;;;24.40;75.40;;;;;;4990142;28;20818;-72
2023/05/30 11:35:02;;;;;;;4.68;2.13;;;24.30;74.40;;;;;;4990399;28;20638;-74
2023/05/30 11:37:32;;;;;;;8.95;3.38;;;24.30;74.10;;;;;;4992431;28;20225;-75
2023/05/30 11:39:59;;;;;;;5.90;2.75;;;24.00;74.80;;;;;;5008672;28;20209;-74
2023/05/30 11:42:29;;;;;;;5.25;2.50;;;23.50;74.10;;;;;;4994024;28;20223;-73
2023/05/30 11:44:55;;;;;;;5.45;2.20;;;23.60;76.10;;;;;;5004350;28;20656;-74
2023/05/30 11:47:21;;;;;;;5.90;2.03;;;23.80;76.30;;;;;;4992253;28;20267;-74
2023/05/30 11:49:47;;;;;;;5.00;2.70;;;24.00;76.10;;;;;;5003070;28;20209;-73
2023/05/30 11:52:13;;;;;;;8.20;3.75;;;24.20;77.00;;;;;;5004376;28;20259;-73
2023/05/30 11:54:39;;;;;;;4.38;2.38;;;24.30;76.60;;;;;;4999140;28;20245;-74
2023/05/30 11:57:11;;;;;;;5.80;2.20;;;23.80;76.10;;;;;;4992654;28;20196;-74
2023/05/30 11:59:40;;;;;;;5.85;2.40;;;23.70;75.80;;;;;;4993551;28;20260;-73
2023/05/30 12:02:06;;;;;;;5.15;2.35;;;23.80;76.00;;;;;;4995278;28;20262;-74
2023/05/30 12:04:37;;;;;;;6.80;2.65;;;23.80;76.40;;;;;;4995418;28;20212;-74
2023/05/30 12:07:04;;;;;;;6.53;2.83;;;23.80;75.90;;;;;;4994512;28;20226;-74
2023/05/30 12:09:41;;;;;;;4.10;2.15;;;23.70;76.30;;;;;;5011253;28;20565;-75
2023/05/30 12:12:08;;;;;;;4.60;2.22;;;23.90;74.90;;;;;;5012115;28;20180;-74
2023/05/30 12:14:37;;;;;;;4.45;2.78;;;23.20;75.70;;;;;;5006173;28;20188;-74
2023/05/30 12:17:17;;;;;;;4.15;2.60;;;23.10;77.50;;;;;;4995859;28;20217;-74
2023/05/30 12:19:44;;;;;;;6.65;3.50;;;22.70;77.20;;;;;;5003566;28;20695;-72
2023/05/30 12:22:15;;;;;;;6.20;2.45;;;22.60;77.40;;;;;;5003143;28;20307;-74
2023/05/30 12:24:41;;;;;;;5.50;2.40;;;22.50;77.80;;;;;;5001665;28;20617;-74
2023/05/30 12:27:16;;;;;;;4.15;1.98;;;22.20;78.20;;;;;;4991767;28;20340;-74
2023/05/30 12:29:42;;;;;;;4.20;2.10;;;22.60;78.40;;;;;;5001897;28;20205;-74
2023/05/30 12:32:08;;;;;;;8.80;2.47;;;22.90;78.60;;;;;;5002417;28;20201;-72
2023/05/30 12:34:46;;;;;;;5.82;1.95;;;23.10;79.00;;;;;;4989125;28;20679;-74
2023/05/30 12:37:14;;;;;;;5.15;1.73;;;23.00;78.50;;;;;;4987779;28;20223;-74
2023/05/30 12:39:53;;;;;;;7.72;2.45;;;23.10;77.70;;;;;;5009316;28;20664;-75
2023/05/30 12:42:21;;;;;;;5.25;2.15;;;23.40;78.20;;;;;;5008941;28;20227;-74
2023/05/30 12:44:49;;;;;;;6.32;2.10;;;23.40;76.80;;;;;;5010470;28;20227;-74
2023/05/30 12:47:15;;;;;;;5.28;2.00;;;22.90;77.50;;;;;;4996673;28;20209;-74
2023/05/30 12:49:41;;;;;;;5.00;2.17;;;23.00;78.10;;;;;;4992407;28;20205;-74